Time;durP1;ratioP1;P1;durP2;ratioP2;P2;SDS_P1;SDS_P2;PMS_P1;PMS_P2;Temp;Humidity;BMP_temperature;BMP_pressure;BME280_temperature;BME280_humidity;BME280_pressure;Samples;Min_cycle;Max_cycle;Signal;HPM_P1;HPM_P2
2020/12/30 00:00:31;;;;;;;60.33;25.35;;;;;;;2.22;72.09;95851.53;1721029;82;25804;-84
2020/12/30 00:03:00;;;;;;;56.80;22.65;;;;;;;2.20;72.21;95838.92;1730680;82;26110;-84
2020/12/30 00:05:28;;;;;;;53.58;22.65;;;;;;;2.22;72.26;95857.37;1717069;82;25634;-84
2020/12/30 00:07:55;;;;;;;58.73;24.95;;;;;;;2.23;72.28;95854.52;1717088;82;25765;-83
2020/12/30 00:10:23;;;;;;;50.83;23.35;;;;;;;2.25;72.21;95871.12;1716850;82;26374;-83
2020/12/30 00:12:51;;;;;;;57.80;25.15;;;;;;;2.24;72.09;95872.64;1717081;82;25774;-83
2020/12/30 00:15:19;;;;;;;75.25;31.68;;;;;;;2.17;72.03;95879.27;1717079;82;28444;-83
2020/12/30 00:17:46;;;;;;;80.32;36.60;;;;;;;2.14;71.98;95884.98;1717018;82;26124;-83
2020/12/30 00:20:17;;;;;;;89.55;38.25;;;;;;;2.11;71.93;95884.03;1719854;82;25675;-83
2020/12/30 00:22:46;;;;;;;91.12;35.08;;;;;;;2.03;71.78;95887.69;1730411;81;25750;-83
2020/12/30 00:25:15;;;;;;;80.77;33.65;;;;;;;1.86;71.80;95898.30;1738901;81;25910;-83
2020/12/30 00:27:44;;;;;;;64.70;29.23;;;;;;;1.85;72.00;95898.48;1743163;81;28394;-83
2020/12/30 00:30:16;;;;;;;71.33;29.85;;;;;;;1.84;71.99;95900.84;1743018;81;25880;-83
2020/12/30 00:32:46;;;;;;;69.15;30.25;;;;;;;1.71;71.92;95901.55;1745292;80;25750;-83
2020/12/30 00:35:17;;;;;;;119.45;48.42;;;;;;;1.61;71.93;95890.43;1734121;81;26272;-83
2020/12/30 00:37:44;;;;;;;72.60;32.25;;;;;;;1.53;71.99;95895.39;1753283;81;26126;-83
2020/12/30 00:40:12;;;;;;;60.43;26.97;;;;;;;1.55;72.27;95901.34;1763682;80;27494;-84
2020/12/30 00:42:40;;;;;;;63.95;26.55;;;;;;;1.61;72.47;95896.58;1760419;80;26132;-84
2020/12/30 00:45:10;;;;;;;57.93;25.65;;;;;;;1.60;72.42;95897.59;1731438;81;25830;-84
2020/12/30 00:47:38;;;;;;;53.83;23.25;;;;;;;1.44;72.37;95893.89;1755208;81;25796;-84
2020/12/30 00:50:06;;;;;;;54.50;23.05;;;;;;;1.37;72.50;95890.33;1727386;81;25777;-84
2020/12/30 00:52:35;;;;;;;57.08;28.30;;;;;;;1.35;72.56;95903.81;1741732;81;27491;-84
2020/12/30 00:55:04;;;;;;;65.92;31.17;;;;;;;1.25;72.60;95901.16;1744992;81;25771;-84
2020/12/30 00:57:31;;;;;;;67.03;31.02;;;;;;;1.31;72.92;95899.91;1750954;81;25812;-84
2020/12/30 00:59:59;;;;;;;59.80;29.25;;;;;;;1.38;73.01;95906.09;1729750;81;25901;-83
2020/12/30 01:02:26;;;;;;;59.27;29.40;;;;;;;1.43;72.92;95896.23;1749521;81;25751;-84
2020/12/30 01:04:53;;;;;;;55.65;27.98;;;;;;;1.41;72.76;95891.61;1727120;81;27622;-84
2020/12/30 01:07:21;;;;;;;63.78;30.43;;;;;;;1.39;72.70;95893.63;1739146;81;26215;-83
2020/12/30 01:09:48;;;;;;;58.85;26.85;;;;;;;1.30;72.67;95893.45;1740586;80;25679;-84
2020/12/30 01:12:15;;;;;;;58.35;26.90;;;;;;;1.30;72.80;95894.78;1741775;81;25757;-83
2020/12/30 01:14:43;;;;;;;55.33;27.32;;;;;;;1.32;72.79;95892.76;1742720;81;25943;-84
2020/12/30 01:17:10;;;;;;;58.20;27.62;;;;;;;1.33;72.80;95897.86;1738818;81;27535;-82
2020/12/30 01:19:37;;;;;;;59.77;29.52;;;;;;;1.37;72.69;95891.66;1727108;81;25785;-83
2020/12/30 01:22:04;;;;;;;60.73;27.42;;;;;;;1.38;72.67;95882.67;1723710;81;25769;-83
2020/12/30 01:24:32;;;;;;;56.18;28.10;;;;;;;1.41;72.67;95888.95;1735060;80;25786;-83
2020/12/30 01:26:59;;;;;;;66.30;28.95;;;;;;;1.38;72.72;95889.32;1753251;81;25772;-83
2020/12/30 01:29:26;;;;;;;59.40;26.85;;;;;;;1.29;72.67;95876.67;1753449;81;27491;-82
2020/12/30 01:31:54;;;;;;;56.55;27.00;;;;;;;1.31;72.63;95889.78;1741053;81;25739;-82
2020/12/30 01:34:21;;;;;;;54.75;25.30;;;;;;;1.28;72.76;95886.17;1744572;81;26293;-82
2020/12/30 01:36:54;;;;;;;58.33;27.80;;;;;;;1.31;72.86;95876.48;1744542;81;26602;-82
2020/12/30 01:39:21;;;;;;;;;;;;;;;1.22;72.69;95882.92;1726053;81;25874;-82
2020/12/30 01:41:49;;;;;;;62.95;25.95;;;;;;;1.19;72.70;95878.02;1723616;81;28286;-82
2020/12/30 01:44:16;;;;;;;68.00;27.00;;;;;;;1.13;72.64;95880.91;1730637;81;25747;-83
2020/12/30 01:46:48;;;;;;;63.73;25.70;;;;;;;1.05;72.65;95869.91;1737165;81;25760;-83
2020/12/30 01:49:19;;;;;;;58.13;27.27;;;;;;;0.94;72.71;95860.30;1723802;81;25769;-83
2020/12/30 01:51:48;;;;;;;76.83;31.87;;;;;;;0.91;72.81;95857.50;1723905;81;25801;-82
2020/12/30 01:54:17;;;;;;;69.42;29.00;;;;;;;0.82;72.79;95861.80;1723541;81;28541;-82
2020/12/30 01:56:46;;;;;;;66.95;28.83;;;;;;;0.83;73.00;95862.95;1741225;81;26134;-83
2020/12/30 01:59:17;;;;;;;56.60;26.50;;;;;;;0.86;72.95;95857.23;1732422;81;25805;-82
2020/12/30 02:02:05;;;;;;;54.30;23.67;;;;;;;0.82;72.82;95853.33;1753721;81;26376;-83
2020/12/30 02:04:55;;;;;;;55.73;23.30;;;;;;;0.68;72.80;95860.83;1732489;81;25837;-83
2020/12/30 02:07:24;;;;;;;63.75;26.97;;;;;;;0.60;73.07;95854.31;1732795;81;27739;-83
2020/12/30 02:09:57;;;;;;;55.80;24.60;;;;;;;0.65;73.16;95842.61;1724080;81;26406;-83
2020/12/30 02:12:27;;;;;;;57.25;25.40;;;;;;;0.67;73.20;95838.77;1753257;81;25907;-84
2020/12/30 02:14:55;;;;;;;57.55;24.32;;;;;;;0.68;73.23;95840.41;1752924;81;25708;-84
2020/12/30 02:17:22;;;;;;;61.77;24.57;;;;;;;0.70;73.25;95846.86;1749678;81;25732;-84
2020/12/30 02:19:50;;;;;;;64.17;28.52;;;;;;;0.70;73.15;95853.50;1709544;81;29650;-84
2020/12/30 02:22:27;;;;;;;55.20;25.68;;;;;;;0.65;73.18;95845.27;1736325;81;25737;-84
2020/12/30 02:24:55;;;;;;;57.67;26.52;;;;;;;0.65;73.28;95841.28;1729261;81;25829;-84
2020/12/30 02:27:22;;;;;;;57.60;24.67;;;;;;;0.54;73.09;95854.55;1753457;81;26826;-84
2020/12/30 02:29:50;;;;;;;54.15;23.45;;;;;;;0.41;73.00;95864.19;1730091;81;25819;-84
2020/12/30 02:32:17;;;;;;;45.92;22.75;;;;;;;0.41;73.24;95864.19;1735439;81;27503;-84
2020/12/30 02:34:44;;;;;;;43.17;20.85;;;;;;;0.45;73.34;95857.50;1753475;81;25872;-85
2020/12/30 02:37:12;;;;;;;36.17;16.37;;;;;;;0.48;73.43;95853.98;1753495;81;26404;-85
2020/12/30 02:39:39;;;;;;;39.80;18.57;;;;;;;0.53;73.54;95865.34;1750950;81;25915;-84
2020/12/30 02:42:06;;;;;;;51.10;24.30;;;;;;;0.60;73.64;95856.97;1753696;80;25753;-84
2020/12/30 02:44:34;;;;;;;51.83;24.25;;;;;;;0.63;73.56;95852.09;1724891;81;27612;-83
2020/12/30 02:47:01;;;;;;;51.30;23.27;;;;;;;0.64;73.47;95843.62;1723532;81;25980;-84
2020/12/30 02:49:28;;;;;;;46.53;22.05;;;;;;;0.61;73.44;95847.47;1728797;81;25773;-84
2020/12/30 02:51:56;;;;;;;41.50;19.35;;;;;;;0.58;73.34;95852.34;1731926;81;26680;-84
2020/12/30 02:54:23;;;;;;;32.58;17.10;;;;;;;0.53;73.23;95854.22;1729523;81;25838;-83
2020/12/30 02:56:50;;;;;;;41.10;17.77;;;;;;;0.43;73.05;95851.55;1735343;81;27505;-83
2020/12/30 02:59:18;;;;;;;33.75;16.17;;;;;;;0.35;73.14;95851.98;1735238;81;25832;-84
2020/12/30 03:01:45;;;;;;;37.73;18.55;;;;;;;0.30;73.25;95850.38;1723924;81;25749;-83
2020/12/30 03:04:13;;;;;;;37.15;17.82;;;;;;;0.35;73.43;95848.52;1732409;81;26916;-83
2020/12/30 03:06:40;;;;;;;39.15;18.42;;;;;;;0.38;73.49;95847.29;1753619;80;25847;-83
2020/12/30 03:09:07;;;;;;;36.95;18.05;;;;;;;0.36;73.46;95861.57;1732338;81;28952;-84
2020/12/30 03:11:35;;;;;;;34.85;17.12;;;;;;;0.38;73.48;95849.95;1753570;81;26388;-84
2020/12/30 03:14:02;;;;;;;39.70;18.70;;;;;;;0.39;73.41;95846.28;1734651;81;25594;-84
2020/12/30 03:16:29;;;;;;;34.85;17.10;;;;;;;0.35;73.43;95849.34;1723552;81;25824;-84
2020/12/30 03:18:57;;;;;;;35.65;18.80;;;;;;;0.34;73.50;95843.70;1723569;81;25767;-84
2020/12/30 03:21:24;;;;;;;35.08;17.02;;;;;;;0.36;73.50;95848.83;1724369;81;26695;-84
2020/12/30 03:23:51;;;;;;;37.50;18.05;;;;;;;0.32;73.42;95853.68;1729056;81;25720;-83
2020/12/30 03:26:19;;;;;;;42.60;19.90;;;;;;;0.30;73.46;95850.38;1741781;81;25798;-83
2020/12/30 03:28:46;;;;;;;40.58;19.35;;;;;;;0.35;73.70;95852.49;1734627;81;25900;-85
2020/12/30 03:31:13;;;;;;;36.93;18.02;;;;;;;0.37;73.50;95863.72;1730854;81;25820;-84
2020/12/30 03:33:41;;;;;;;36.98;18.62;;;;;;;0.30;73.52;95854.36;1728940;81;27758;-84
2020/12/30 03:36:08;;;;;;;33.53;17.17;;;;;;;0.30;73.54;95854.36;1741020;81;25766;-84
2020/12/30 03:38:35;;;;;;;31.30;15.43;;;;;;;0.33;73.53;95848.69;1740993;81;25754;-83
2020/12/30 03:41:03;;;;;;;32.73;15.83;;;;;;;0.33;73.44;95847.87;1728423;81;25895;-84
2020/12/30 03:43:31;;;;;;;33.48;17.50;;;;;;;0.31;73.40;95849.38;1736196;81;25767;-84
2020/12/30 03:45:58;;;;;;;38.40;17.90;;;;;;;0.27;73.33;95857.88;1730235;81;28590;-85
2020/12/30 03:48:26;;;;;;;33.98;17.98;;;;;;;0.21;73.42;95855.48;1729563;81;26291;-84
2020/12/30 03:50:53;;;;;;;30.20;15.05;;;;;;;0.22;73.57;95847.84;1732422;81;25804;-84
2020/12/30 03:53:20;;;;;;;26.93;13.30;;;;;;;0.24;73.55;95841.82;1734777;81;27149;-84
2020/12/30 03:55:48;;;;;;;27.17;12.65;;;;;;;0.23;73.44;95840.70;1729539;81;25790;-84
2020/12/30 03:58:15;;;;;;;29.20;14.03;;;;;;;0.15;73.42;95836.30;1732587;81;27577;-83
2020/12/30 04:00:42;;;;;;;28.77;14.30;;;;;;;0.14;73.60;95825.37;1741103;81;25741;-84
2020/12/30 04:03:10;;;;;;;25.40;13.55;;;;;;;0.18;73.72;95830.64;1737809;81;25804;-83
2020/12/30 04:05:37;;;;;;;37.93;16.27;;;;;;;0.21;73.65;95824.14;1735520;81;25832;-84
2020/12/30 04:08:04;;;;;;;42.90;20.40;;;;;;;0.19;73.58;95820.34;1738811;81;25828;-83
2020/12/30 04:10:32;;;;;;;47.65;20.60;;;;;;;0.23;73.62;95821.63;1728112;81;28588;-83
2020/12/30 04:12:59;;;;;;;47.08;21.62;;;;;;;0.24;73.57;95821.12;1752397;81;25791;-83
2020/12/30 04:15:26;;;;;;;45.45;20.08;;;;;;;0.21;73.47;95822.81;1758367;81;26290;-83
2020/12/30 04:17:54;;;;;;;45.48;21.25;;;;;;;0.18;73.42;95827.98;1757798;81;26076;-83
2020/12/30 04:20:21;;;;;;;48.70;21.20;;;;;;;0.15;73.43;95834.98;1728131;81;25869;-84
2020/12/30 04:22:48;;;;;;;39.40;17.60;;;;;;;0.12;73.58;95835.34;1728157;81;26907;-83
2020/12/30 04:25:15;;;;;;;35.75;15.28;;;;;;;0.14;73.79;95831.17;1740313;81;25804;-84
2020/12/30 04:27:43;;;;;;;35.85;15.75;;;;;;;0.16;73.83;95844.59;1733796;81;25735;-84
2020/12/30 04:30:10;;;;;;;32.98;14.58;;;;;;;0.11;73.79;95836.88;1740868;81;25901;-83
2020/12/30 04:32:37;;;;;;;34.92;15.60;;;;;;;0.10;73.88;95828.09;1750893;81;25926;-85
2020/12/30 04:35:05;;;;;;;34.60;15.75;;;;;;;0.15;73.90;95836.30;1740454;81;27559;-84
2020/12/30 04:37:33;;;;;;;41.90;17.17;;;;;;;0.17;73.84;95840.92;1732647;81;26514;-84
2020/12/30 04:40:00;;;;;;;38.23;18.23;;;;;;;0.16;73.83;95843.26;1744285;80;25717;-84
2020/12/30 04:42:34;;;;;;;37.70;17.23;;;;;;;0.14;73.87;95836.48;1747946;80;25938;-85
2020/12/30 04:45:07;;;;;;;37.93;16.20;;;;;;;0.14;73.96;95841.79;1721437;81;25912;-84
2020/12/30 04:47:35;;;;;;;35.00;16.25;;;;;;;0.15;74.01;95838.95;1774909;80;27494;-84
2020/12/30 04:50:05;;;;;;;32.15;14.87;;;;;;;0.03;73.82;95831.15;1775888;80;25325;-84
2020/12/30 04:52:33;;;;;;;27.85;13.60;;;;;;;-0.02;73.93;95849.47;1775724;80;25378;-84
2020/12/30 04:55:03;;;;;;;26.77;13.18;;;;;;;0.00;74.04;95851.44;1775808;80;27452;-83
2020/12/30 05:00:40;;;;;;;27.70;13.88;;;;;;;-0.02;74.19;95842.83;1844163;76;34812;-83
2020/12/30 05:03:11;;;;;;;31.35;15.35;;;;;;;-0.11;74.23;95845.23;1817556;77;25742;-82
2020/12/30 05:05:39;;;;;;;28.38;14.68;;;;;;;-0.09;74.30;95847.20;1827498;77;27475;-84
2020/12/30 05:08:13;;;;;;;30.88;15.35;;;;;;;-0.04;74.33;95852.30;1830041;77;25753;-84
2020/12/30 05:10:45;;;;;;;26.40;13.58;;;;;;;-0.02;74.24;95849.47;1813251;77;25698;-83
2020/12/30 05:13:13;;;;;;;19.53;12.37;;;;;;;-0.01;74.25;95855.09;1830172;77;25937;-84
2020/12/30 05:15:40;;;;;;;32.23;15.23;;;;;;;0.01;74.20;95859.69;1815761;77;25916;-83
2020/12/30 05:18:09;;;;;;;39.90;17.90;;;;;;;0.01;74.29;95861.02;1826564;77;27538;-84
2020/12/30 05:20:37;;;;;;;44.73;20.45;;;;;;;0.00;74.27;95866.02;1832593;77;26613;-85
2020/12/30 05:23:09;;;;;;;39.38;17.12;;;;;;;-0.01;74.34;95866.52;1832762;77;25661;-84
2020/12/30 05:25:42;;;;;;;31.57;15.35;;;;;;;0.02;74.33;95868.47;1852371;77;26205;-83
2020/12/30 05:28:13;;;;;;;37.03;17.27;;;;;;;0.04;74.30;95863.80;1852129;77;25848;-84
2020/12/30 05:30:44;;;;;;;38.58;16.00;;;;;;;0.02;74.27;95867.97;1822965;77;27482;-84
2020/12/30 05:33:13;;;;;;;42.40;18.77;;;;;;;0.06;74.35;95865.78;1811467;77;25682;-84
2020/12/30 05:35:41;;;;;;;38.85;18.35;;;;;;;0.06;74.33;95869.25;1835761;77;25721;-83
2020/12/30 05:38:08;;;;;;;31.40;15.72;;;;;;;0.08;74.40;95869.08;1837263;77;25756;-83
2020/12/30 05:40:35;;;;;;;37.28;18.35;;;;;;;0.10;74.37;95870.55;1816781;77;25955;-84
2020/12/30 05:43:15;;;;;;;43.23;19.45;;;;;;;0.09;74.28;95868.07;1824855;76;27476;-85
2020/12/30 05:45:54;;;;;;;37.53;17.80;;;;;;;0.08;74.24;95873.88;1849436;77;26324;-83
2020/12/30 05:48:22;;;;;;;38.70;17.15;;;;;;;0.07;74.27;95869.58;1838506;76;25726;-83
2020/12/30 05:50:55;;;;;;;32.90;15.08;;;;;;;0.06;74.26;95869.25;1840396;76;26284;-83
2020/12/30 05:53:24;;;;;;;35.20;18.62;;;;;;;0.08;74.42;95875.70;1828270;76;25689;-85
2020/12/30 05:56:11;;;;;;;35.55;18.10;;;;;;;0.04;74.37;95880.55;1813597;76;28568;-83
2020/12/30 05:58:44;;;;;;;53.55;23.30;;;;;;;0.05;74.37;95874.23;1816020;77;25733;-84
2020/12/30 06:01:27;;;;;;;57.38;25.80;;;;;;;0.11;74.46;95874.02;1811909;79;25761;-83
2020/12/30 06:03:55;;;;;;;68.80;28.57;;;;;;;0.16;74.51;95863.66;1798130;78;25778;-84
2020/12/30 06:06:23;;;;;;;66.12;28.32;;;;;;;0.18;74.45;95867.78;1810632;78;25670;-85
2020/12/30 06:08:50;;;;;;;58.40;26.15;;;;;;;0.17;74.35;95870.11;1794992;78;27559;-83
2020/12/30 06:11:25;;;;;;;54.80;24.80;;;;;;;0.15;74.30;95876.11;1812629;78;25694;-84
2020/12/30 06:13:53;;;;;;;63.73;30.17;;;;;;;0.19;74.35;95873.41;1792605;79;25731;-84
2020/12/30 06:16:26;;;;;;;71.95;28.90;;;;;;;0.19;74.28;95876.06;1791110;78;25729;-83
2020/12/30 06:18:57;;;;;;;54.98;25.35;;;;;;;0.11;74.28;95863.41;1778455;78;25712;-84
2020/12/30 06:21:25;;;;;;;70.47;31.17;;;;;;;0.08;74.34;95868.58;1772993;78;28453;-84
2020/12/30 06:23:56;;;;;;;83.47;35.78;;;;;;;0.11;74.38;95863.41;1770703;78;26141;-83
2020/12/30 06:26:27;;;;;;;106.40;44.42;;;;;;;0.11;74.43;95854.13;1791371;79;25794;-86
2020/12/30 06:28:55;;;;;;;106.97;46.68;;;;;;;0.06;74.47;95861.30;1785227;78;26537;-86
2020/12/30 06:31:23;;;;;;;101.33;40.98;;;;;;;0.02;74.62;95863.98;1767425;80;25894;-86
2020/12/30 06:33:50;;;;;;;89.25;38.60;;;;;;;0.03;74.70;95868.79;1751144;81;28536;-84
2020/12/30 06:36:25;;;;;;;124.20;47.62;;;;;;;0.08;74.80;95863.27;1754637;81;25727;-85
2020/12/30 06:38:52;;;;;;;130.00;51.10;;;;;;;0.11;74.85;95856.27;1754616;80;25744;-84
2020/12/30 06:41:19;;;;;;;129.55;48.87;;;;;;;0.15;74.86;95860.19;1754569;81;25839;-86
2020/12/30 06:43:50;;;;;;;135.43;53.15;;;;;;;0.19;74.75;95867.28;1754653;81;25924;-83
2020/12/30 06:46:29;;;;;;;176.25;61.35;;;;;;;0.10;74.68;95867.89;1754618;80;27488;-82
2020/12/30 06:49:03;;;;;;;147.02;56.83;;;;;;;0.11;74.77;95875.34;1754681;81;25807;-83
2020/12/30 06:51:40;;;;;;;132.37;50.70;;;;;;;0.13;74.82;95873.31;1754650;80;25418;-83
2020/12/30 06:54:09;;;;;;;154.27;56.83;;;;;;;0.18;74.88;95880.23;1729448;81;26301;-82
2020/12/30 06:56:42;;;;;;;146.40;57.23;;;;;;;0.21;74.85;95887.33;1754692;81;25732;-84
2020/12/30 06:59:20;;;;;;;149.97;59.15;;;;;;;0.22;74.82;95894.78;1756918;79;27668;-83
2020/12/30 07:02:04;;;;;;;152.50;55.67;;;;;;;0.23;74.79;95894.61;1838567;77;26317;-85
2020/12/30 07:04:35;;;;;;;153.02;57.00;;;;;;;0.24;74.80;95895.43;1833706;77;25681;-83
2020/12/30 07:07:21;;;;;;;147.15;55.38;;;;;;;0.25;74.93;95895.22;1828647;77;26174;-85
2020/12/30 07:09:48;;;;;;;147.10;55.48;;;;;;;0.30;74.98;95898.16;1840957;77;25800;-84
2020/12/30 07:12:16;;;;;;;160.03;60.73;;;;;;;0.25;74.87;95895.22;1842280;77;28491;-85
2020/12/30 07:14:44;;;;;;;144.47;56.02;;;;;;;0.24;74.93;95898.88;1825920;77;25894;-84
2020/12/30 07:17:11;;;;;;;141.20;50.92;;;;;;;0.21;74.95;95887.83;1842454;77;26167;-84
2020/12/30 07:19:40;;;;;;;130.27;47.38;;;;;;;0.20;75.06;95890.16;1842198;77;26029;-85
2020/12/30 07:22:13;;;;;;;108.37;47.10;;;;;;;0.23;75.19;95892.45;1842597;77;26345;-85
2020/12/30 07:24:57;;;;;;;94.32;42.93;;;;;;;0.18;75.25;95893.49;1832187;77;27538;-84
2020/12/30 07:27:30;;;;;;;106.63;46.18;;;;;;;0.24;75.40;95886.14;1828772;77;26017;-86
2020/12/30 07:29:57;;;;;;;125.22;52.45;;;;;;;0.31;75.44;95890.52;1834612;77;26785;-83
2020/12/30 07:32:25;;;;;;;141.30;56.30;;;;;;;0.38;75.41;95892.42;1842521;77;25698;-83
2020/12/30 07:34:52;;;;;;;181.40;69.50;;;;;;;0.41;75.40;95880.11;1842122;77;25721;-84
2020/12/30 07:37:21;;;;;;;160.25;65.17;;;;;;;0.46;75.42;95884.38;1840851;77;28472;-83
2020/12/30 07:39:50;;;;;;;167.13;66.00;;;;;;;0.51;75.39;95887.27;1835937;77;25884;-82
2020/12/30 07:42:24;;;;;;;167.62;67.65;;;;;;;0.53;75.44;95889.24;1831943;77;25943;-84
2020/12/30 07:44:54;;;;;;;172.20;64.30;;;;;;;0.52;75.41;95892.91;1821049;77;26222;-83
2020/12/30 07:47:27;;;;;;;164.62;67.12;;;;;;;0.57;75.50;95886.55;1829213;77;25694;-83
2020/12/30 07:50:00;;;;;;;168.17;65.60;;;;;;;0.63;75.50;95880.47;1832933;77;27489;-83
2020/12/30 07:52:29;;;;;;;103.62;49.10;;;;;;;0.68;75.50;95877.59;1818660;77;25675;-84
2020/12/30 07:54:56;;;;;;;109.03;48.75;;;;;;;0.77;75.60;95874.30;1838600;77;25804;-84
2020/12/30 07:57:24;;;;;;;96.57;44.58;;;;;;;0.84;75.63;95879.20;1839005;77;25664;-83
2020/12/30 07:59:52;;;;;;;87.02;40.88;;;;;;;0.88;75.63;95891.58;1814787;77;25686;-83
2020/12/30 08:02:20;;;;;;;84.03;38.85;;;;;;;0.89;75.56;95890.58;1782235;78;28475;-84
2020/12/30 08:04:52;;;;;;;93.87;41.77;;;;;;;0.92;75.60;95879.08;1778892;79;26294;-83
2020/12/30 08:07:19;;;;;;;101.22;44.42;;;;;;;0.98;75.66;95874.32;1787093;79;25692;-84
2020/12/30 08:09:48;;;;;;;106.40;45.88;;;;;;;1.04;75.63;95878.06;1795349;78;25841;-83
2020/12/30 08:12:16;;;;;;;109.32;46.28;;;;;;;1.07;75.59;95879.85;1795500;78;25761;-85
2020/12/30 08:14:45;;;;;;;120.97;50.40;;;;;;;1.05;75.59;95871.23;1781063;79;27411;-84
2020/12/30 08:17:16;;;;;;;153.40;60.73;;;;;;;1.09;75.63;95875.64;1763647;79;25751;-84
2020/12/30 08:19:50;;;;;;;168.02;65.42;;;;;;;1.09;75.64;95879.63;1786836;78;25768;-86
2020/12/30 08:22:20;;;;;;;168.57;66.15;;;;;;;1.14;75.69;95876.42;1777252;79;25773;-86
2020/12/30 08:24:50;;;;;;;165.57;67.65;;;;;;;1.17;75.71;95876.87;1790590;78;26388;-84
2020/12/30 08:27:23;;;;;;;153.02;60.78;;;;;;;1.21;75.69;95882.64;1795336;78;28447;-84
2020/12/30 08:29:51;;;;;;;140.55;58.15;;;;;;;1.25;75.72;95889.20;1795299;78;25774;-84
2020/12/30 08:32:33;;;;;;;136.50;56.77;;;;;;;1.27;75.73;95889.33;1795484;78;25856;-85
2020/12/30 08:35:17;;;;;;;146.87;58.80;;;;;;;1.32;75.77;95886.94;1785508;78;25639;-84
2020/12/30 08:38:06;;;;;;;145.17;60.05;;;;;;;1.37;75.72;95887.67;1795662;78;25332;-84
2020/12/30 08:40:36;;;;;;;163.47;66.95;;;;;;;1.38;75.64;95901.28;1785722;78;28450;-84
2020/12/30 08:43:43;;;;;;;161.00;68.62;;;;;;;1.39;75.67;95895.78;1785628;78;25765;-86
2020/12/30 08:46:26;;;;;;;163.90;67.97;;;;;;;1.42;75.74;95893.25;1775130;79;25742;-85
2020/12/30 08:48:54;;;;;;;179.75;72.12;;;;;;;1.44;75.80;95893.89;1796388;78;25754;-87
2020/12/30 08:51:34;;;;;;;192.68;77.80;;;;;;;1.42;75.80;95897.24;1789572;78;25743;-84
2020/12/30 08:54:02;;;;;;;210.00;83.58;;;;;;;1.38;75.87;95903.94;1799476;78;27560;-85
2020/12/30 08:56:30;;;;;;;195.60;80.45;;;;;;;1.44;75.98;95901.87;1773660;79;26318;-84
2020/12/30 08:58:58;;;;;;;180.37;78.05;;;;;;;1.48;75.99;95889.81;1799778;78;25761;-86
2020/12/30 09:01:30;;;;;;;144.80;63.35;;;;;;;1.44;75.97;95888.57;1822060;77;25367;-85
2020/12/30 09:04:11;;;;;;;146.22;62.73;;;;;;;1.42;76.02;95886.09;1832028;77;25764;-85
2020/12/30 09:06:41;;;;;;;140.50;60.75;;;;;;;1.48;76.05;95884.50;1832798;77;27686;-85
2020/12/30 09:09:13;;;;;;;141.47;63.87;;;;;;;1.55;76.08;95882.73;1770613;77;26437;-85
2020/12/30 09:11:47;;;;;;;141.12;65.80;;;;;;;1.53;76.06;95882.09;1819000;77;25634;-85
2020/12/30 09:14:22;;;;;;;140.85;69.15;;;;;;;1.52;76.12;95880.95;1840167;77;26402;-85
2020/12/30 09:17:05;;;;;;;149.10;69.17;;;;;;;1.57;76.24;95878.02;1827784;77;26338;-86
2020/12/30 09:19:31;;;;;;;137.40;66.37;;;;;;;1.59;76.23;95881.31;1792386;77;27498;-86
2020/12/30 09:22:12;;;;;;;163.28;75.95;;;;;;;1.60;76.27;95881.62;1817216;77;25757;-85
2020/12/30 09:24:42;;;;;;;160.70;76.25;;;;;;;1.65;76.28;95881.89;1809492;77;25871;-85
2020/12/30 09:27:23;;;;;;;160.55;77.67;;;;;;;1.76;76.35;95870.71;1833482;77;25723;-84
2020/12/30 09:30:12;;;;;;;145.92;73.45;;;;;;;1.74;76.27;95883.38;1824200;77;25687;-84
2020/12/30 09:32:43;;;;;;;144.32;68.17;;;;;;;1.77;76.30;95879.01;1839028;77;27689;-84
2020/12/30 09:35:13;;;;;;;154.53;70.00;;;;;;;1.80;76.30;95874.64;1785209;77;25763;-84
2020/12/30 09:37:45;;;;;;;144.10;69.40;;;;;;;1.78;76.26;95870.52;1805434;77;25829;-83
2020/12/30 09:40:15;;;;;;;153.20;72.20;;;;;;;1.80;76.24;95865.33;1806902;77;26457;-84
2020/12/30 09:42:45;;;;;;;156.72;73.47;;;;;;;1.85;76.32;95869.22;1806847;77;26388;-83
2020/12/30 09:45:15;;;;;;;161.05;71.87;;;;;;;1.84;76.33;95871.06;1818201;77;28674;-84
2020/12/30 09:47:44;;;;;;;159.03;70.22;;;;;;;1.88;76.36;95872.83;1832707;77;25732;-84
2020/12/30 09:50:15;;;;;;;159.03;72.27;;;;;;;1.95;76.44;95872.36;1811055;77;25750;-84
2020/12/30 09:52:45;;;;;;;176.02;73.47;;;;;;;2.00;76.45;95876.09;1822676;77;26385;-85
2020/12/30 09:55:14;;;;;;;156.22;73.07;;;;;;;2.02;76.51;95870.58;1842820;77;25686;-84
2020/12/30 09:57:42;;;;;;;161.35;75.05;;;;;;;1.98;76.42;95875.45;1805633;77;28648;-83
2020/12/30 10:00:10;;;;;;;160.93;77.42;;;;;;;2.05;76.51;95875.52;1829667;77;25589;-82
2020/12/30 10:02:37;;;;;;;154.10;77.85;;;;;;;2.12;76.56;95872.38;1789730;78;26215;-82
2020/12/30 10:05:05;;;;;;;162.20;84.05;;;;;;;2.16;76.52;95865.14;1777639;79;26374;-81
2020/12/30 10:07:33;;;;;;;196.32;94.52;;;;;;;2.22;76.51;95858.19;1786323;79;26114;-81
2020/12/30 10:10:00;;;;;;;179.78;88.82;;;;;;;2.28;76.48;95854.76;1779619;78;28457;-82
2020/12/30 10:12:27;;;;;;;179.65;89.65;;;;;;;2.38;76.44;95852.55;1783115;78;25817;-82
2020/12/30 10:14:55;;;;;;;188.37;85.38;;;;;;;2.45;76.42;95840.06;1773394;79;26299;-82
2020/12/30 10:17:23;;;;;;;171.85;83.97;;;;;;;2.50;76.36;95836.31;1795734;79;25787;-82
2020/12/30 10:19:50;;;;;;;154.65;81.97;;;;;;;2.57;76.40;95836.83;1779911;78;25894;-82
2020/12/30 10:22:18;;;;;;;158.40;87.08;;;;;;;2.65;76.44;95831.34;1788239;78;27497;-84
2020/12/30 10:24:47;;;;;;;170.43;88.00;;;;;;;2.72;76.45;95829.00;1763848;79;25875;-82
2020/12/30 10:27:17;;;;;;;163.70;87.17;;;;;;;2.80;76.46;95818.66;1763801;79;25671;-82
2020/12/30 10:29:45;;;;;;;170.62;88.90;;;;;;;2.89;76.49;95820.95;1770228;79;25768;-82
2020/12/30 10:32:12;;;;;;;148.38;81.55;;;;;;;3.01;76.53;95816.36;1766747;79;25706;-82
2020/12/30 10:34:40;;;;;;;151.35;78.70;;;;;;;3.12;76.52;95811.25;1795650;78;28487;-83
2020/12/30 10:37:08;;;;;;;158.60;82.22;;;;;;;3.23;76.63;95805.81;1764479;79;25799;-83
2020/12/30 10:39:36;;;;;;;153.30;83.03;;;;;;;3.36;76.69;95805.00;1771903;79;25781;-83
2020/12/30 10:42:04;;;;;;;107.97;57.88;;;;;;;3.43;76.42;95803.14;1793646;78;25706;-83
2020/12/30 10:44:32;;;;;;;117.77;58.48;;;;;;;3.47;76.20;95803.87;1795270;78;25769;-82
2020/12/30 10:46:59;;;;;;;118.93;61.90;;;;;;;3.51;76.02;95801.08;1795460;78;27698;-82
2020/12/30 10:49:27;;;;;;;122.95;67.25;;;;;;;3.56;76.09;95799.13;1793173;78;25741;-83
2020/12/30 10:51:54;;;;;;;114.12;59.10;;;;;;;3.62;76.12;95795.66;1794907;79;25823;-83
2020/12/30 10:54:22;;;;;;;122.33;62.48;;;;;;;3.68;75.97;95789.98;1791884;78;25522;-84
2020/12/30 10:56:52;;;;;;;115.90;61.63;;;;;;;3.73;75.88;95781.67;1799005;79;26166;-82
2020/12/30 10:59:21;;;;;;;117.72;60.43;;;;;;;3.76;75.97;95781.75;1795457;79;28353;-82
2020/12/30 11:01:53;;;;;;;109.65;59.58;;;;;;;3.77;75.97;95782.88;1825211;77;25993;-82
2020/12/30 11:04:21;;;;;;;115.50;59.53;;;;;;;3.80;75.94;95783.80;1841103;77;32870;-83
2020/12/30 11:06:49;;;;;;;112.65;58.80;;;;;;;3.84;75.94;95774.36;1841242;77;25765;-83
2020/12/30 11:09:16;;;;;;;112.10;58.58;;;;;;;3.87;75.92;95769.92;1841172;77;25743;-83
2020/12/30 11:11:44;;;;;;;104.67;56.83;;;;;;;3.90;75.89;95773.52;1843698;76;27691;-83
2020/12/30 11:14:12;;;;;;;112.10;57.75;;;;;;;3.95;75.99;95776.39;1840406;77;25862;-83
2020/12/30 11:16:39;;;;;;;106.75;57.17;;;;;;;4.03;76.04;95785.19;1840003;77;25776;-83
2020/12/30 11:19:07;;;;;;;99.83;54.45;;;;;;;3.99;75.94;95788.78;1844726;76;25792;-83
2020/12/30 11:21:34;;;;;;;94.97;52.70;;;;;;;4.01;75.95;95791.24;1846292;77;25798;-83
2020/12/30 11:24:01;;;;;;;95.70;51.28;;;;;;;4.05;75.98;95799.15;1844919;77;27488;-83
2020/12/30 11:26:29;;;;;;;97.40;51.18;;;;;;;4.09;76.00;95795.04;1840387;77;25752;-83
2020/12/30 11:28:56;;;;;;;92.92;51.77;;;;;;;4.13;75.99;95786.89;1835799;77;25726;-83
2020/12/30 11:31:25;;;;;;;91.67;50.52;;;;;;;4.16;76.04;95783.81;1840844;77;25837;-82
2020/12/30 11:33:52;;;;;;;94.20;48.40;;;;;;;4.13;76.01;95782.89;1843024;77;25744;-82
2020/12/30 11:36:20;;;;;;;91.60;48.83;;;;;;;4.17;76.09;95774.77;1846204;76;27465;-82